createdAt,value
2024-03-08T00:02:41.506Z,-3.16
2024-03-08T00:07:45.978Z,-3.22
2024-03-08T00:12:50.370Z,-3.26
2024-03-08T00:17:55.860Z,-3.29
2024-03-08T00:23:00.487Z,-3.31
2024-03-08T00:28:06.768Z,-3.34
2024-03-08T00:33:10.902Z,-3.40
2024-03-08T00:38:14.836Z,-3.37
2024-03-08T00:43:19.280Z,-3.37
2024-03-08T00:48:23.967Z,-3.35
2024-03-08T00:53:28.812Z,-3.35
2024-03-08T00:58:33.232Z,-3.42
2024-03-08T01:03:38.038Z,-3.49
2024-03-08T01:08:44.095Z,-3.51
2024-03-08T01:13:50.006Z,-3.53
2024-03-08T01:18:53.870Z,-3.58
2024-03-08T01:23:59.235Z,-3.62
2024-03-08T01:29:06.720Z,-3.64
2024-03-08T01:34:10.635Z,-3.65
2024-03-08T01:39:15.376Z,-3.64
2024-03-08T01:44:19.743Z,-3.64
2024-03-08T01:49:26.892Z,-3.74
2024-03-08T01:54:31.978Z,-3.80
2024-03-08T01:59:36.158Z,-3.82
2024-03-08T02:04:41.139Z,-3.82
2024-03-08T02:09:45.332Z,-3.84
2024-03-08T02:14:50.411Z,-3.90
2024-03-08T02:19:57.690Z,-3.96
2024-03-08T02:25:05.143Z,-3.99
2024-03-08T02:30:10.707Z,-3.99
2024-03-08T02:35:15.016Z,-4.02
2024-03-08T02:40:19.694Z,-4.05
2024-03-08T02:45:24.270Z,-4.09
2024-03-08T02:50:29.025Z,-4.14
2024-03-08T02:55:35.051Z,-4.18
2024-03-08T03:00:47.997Z,-4.23
2024-03-08T03:06:03.550Z,-4.27
2024-03-08T03:11:09.058Z,-4.29
2024-03-08T03:16:19.885Z,-4.31
2024-03-08T03:21:24.147Z,-4.31
2024-03-08T03:26:28.981Z,-4.34
2024-03-08T03:31:32.984Z,-4.40
2024-03-08T03:36:39.784Z,-4.45
2024-03-08T03:41:47.870Z,-4.50
2024-03-08T03:46:55.264Z,-4.53
2024-03-08T03:51:59.482Z,-4.53
2024-03-08T03:57:04.847Z,-4.53
2024-03-08T04:02:09.773Z,-4.55
2024-03-08T04:07:14.557Z,-4.56
2024-03-08T04:12:19.374Z,-4.52
2024-03-08T04:17:26.033Z,-4.52
2024-03-08T04:22:30.646Z,-4.52
2024-03-08T04:27:35.989Z,-4.57
2024-03-08T04:32:40.381Z,-4.61
2024-03-08T04:37:44.054Z,-4.62
2024-03-08T04:42:48.050Z,-4.64
2024-03-08T04:47:53.429Z,-4.66
2024-03-08T04:52:57.259Z,-4.68
2024-03-08T04:58:01.791Z,-4.64
2024-03-08T05:03:06.750Z,-4.63
2024-03-08T05:08:11.300Z,-4.68
2024-03-08T05:13:15.838Z,-4.67
2024-03-08T05:18:20.419Z,-4.65
2024-03-08T05:23:23.943Z,-4.68
2024-03-08T05:28:28.155Z,-4.70
2024-03-08T05:33:32.097Z,-4.67
2024-03-08T05:38:36.108Z,-4.62
2024-03-08T05:43:42.496Z,-4.54
2024-03-08T05:48:48.344Z,-4.47
2024-03-08T05:53:55.299Z,-4.38
2024-03-08T05:59:02.451Z,-4.32
2024-03-08T06:04:06.870Z,-4.23
2024-03-08T06:09:15.831Z,-4.11
2024-03-08T06:14:20.523Z,-3.96
2024-03-08T06:19:24.919Z,-3.81
2024-03-08T06:24:29.103Z,-3.64
2024-03-08T06:29:33.359Z,-3.46
2024-03-08T06:34:37.997Z,-3.28
2024-03-08T06:39:42.251Z,-3.14
2024-03-08T06:44:51.549Z,-2.95
2024-03-08T06:49:55.976Z,-2.75
2024-03-08T06:55:03.247Z,-2.57
2024-03-08T07:00:11.492Z,-2.33
2024-03-08T07:05:16.798Z,-1.97
2024-03-08T07:10:20.883Z,-1.68
2024-03-08T07:15:25.953Z,-1.26
2024-03-08T07:20:30.518Z,-0.29
2024-03-08T07:25:34.996Z,1.11
2024-03-08T07:30:45.825Z,2.73
2024-03-08T07:35:51.927Z,4.37
2024-03-08T07:40:58.751Z,5.72
2024-03-08T07:46:03.329Z,6.87
2024-03-08T07:51:08.093Z,7.42
2024-03-08T07:56:15.053Z,7.66
2024-03-08T08:01:20.412Z,7.73
2024-03-08T08:06:25.032Z,7.67
2024-03-08T08:11:30.696Z,7.52
2024-03-08T08:16:34.837Z,7.42
2024-03-08T08:21:39.201Z,7.35
2024-03-08T08:26:43.395Z,7.18
2024-03-08T08:31:48.302Z,7.07
2024-03-08T08:36:52.836Z,6.97
2024-03-08T08:41:57.789Z,6.86
2024-03-08T08:47:09.907Z,6.77
2024-03-08T08:52:18.581Z,6.75
2024-03-08T08:57:22.637Z,6.77
2024-03-08T09:02:27.507Z,6.74
2024-03-08T09:07:31.464Z,6.72
2024-03-08T09:12:35.637Z,6.75
2024-03-08T09:17:43.343Z,6.89
2024-03-08T09:22:47.865Z,7.08
2024-03-08T09:27:52.431Z,7.33
2024-03-08T09:32:58.591Z,7.57
2024-03-08T09:38:04.862Z,7.72
2024-03-08T09:43:09.916Z,7.85
2024-03-08T09:48:14.368Z,8.02
2024-03-08T09:53:19.238Z,8.17
2024-03-08T09:58:33.129Z,8.27
2024-03-08T10:03:37.588Z,8.42
2024-03-08T10:08:42.850Z,8.38
2024-03-08T10:13:50.195Z,8.33
2024-03-08T10:18:55.290Z,8.28
2024-03-08T10:24:00.626Z,8.45
2024-03-08T10:29:06.111Z,8.66
2024-03-08T10:34:11.032Z,8.87
2024-03-08T10:39:26.370Z,8.86
2024-03-08T10:44:52.700Z,9.00
2024-03-08T10:50:05.899Z,9.00
2024-03-08T10:55:14.259Z,9.02
2024-03-08T11:00:20.156Z,9.10
2024-03-08T11:05:43.571Z,9.18
2024-03-08T11:10:56.074Z,9.30
2024-03-08T11:16:02.092Z,9.30
2024-03-08T11:21:14.665Z,9.29
2024-03-08T11:26:25.481Z,9.28
2024-03-08T11:31:30.606Z,9.34
2024-03-08T11:36:38.790Z,9.35
2024-03-08T11:41:47.348Z,9.30
2024-03-08T11:46:51.835Z,9.25
2024-03-08T11:51:58.552Z,9.38
2024-03-08T11:57:02.964Z,9.45
2024-03-08T12:02:08.415Z,9.50
2024-03-08T12:07:14.750Z,9.59
2024-03-08T12:12:19.369Z,9.66
2024-03-08T12:17:25.728Z,9.65
2024-03-08T12:22:33.069Z,9.52
2024-03-08T12:27:38.378Z,9.41
2024-03-08T12:32:48.637Z,9.37
2024-03-08T12:37:55.207Z,9.32
2024-03-08T12:43:04.412Z,9.24
2024-03-08T12:48:18.194Z,9.23
2024-03-08T12:53:22.771Z,9.20
2024-03-08T12:58:27.861Z,9.20
2024-03-08T13:03:33.386Z,9.23
2024-03-08T13:08:43.566Z,9.25
2024-03-08T13:13:47.523Z,9.28
2024-03-08T13:18:54.643Z,9.33
2024-03-08T13:24:01.985Z,9.35
2024-03-08T13:29:08.133Z,9.37
2024-03-08T13:34:13.068Z,9.34
2024-03-08T13:39:17.712Z,9.33
2024-03-08T13:44:22.143Z,9.29
2024-03-08T13:49:27.968Z,9.21
2024-03-08T13:54:32.850Z,9.18
2024-03-08T13:59:37.006Z,9.20
2024-03-08T14:04:43.696Z,9.11
2024-03-08T14:09:48.459Z,9.11
2024-03-08T14:14:53.494Z,9.13
2024-03-08T14:19:58.428Z,9.09
2024-03-08T14:25:06.176Z,8.98
2024-03-08T14:30:11.830Z,8.92
2024-03-08T14:35:16.139Z,8.89
2024-03-08T14:40:27.812Z,8.87
2024-03-08T14:45:32.189Z,8.83
2024-03-08T14:50:38.325Z,8.81
2024-03-08T14:55:41.971Z,8.73
2024-03-08T15:00:47.136Z,8.67
2024-03-08T15:05:51.859Z,8.57
2024-03-08T15:10:56.123Z,8.44
2024-03-08T15:16:00.518Z,8.35
2024-03-08T15:21:07.980Z,8.27
2024-03-08T15:26:11.962Z,8.15
2024-03-08T15:31:16.269Z,7.96
2024-03-08T15:36:22.702Z,7.83
2024-03-08T15:41:28.263Z,7.68
2024-03-08T15:46:32.166Z,7.53
2024-03-08T15:51:40.256Z,7.38
2024-03-08T15:56:47.625Z,7.22
2024-03-08T16:01:53.426Z,7.03
2024-03-08T16:07:03.556Z,6.86
2024-03-08T16:12:14.350Z,6.66
2024-03-08T16:17:20.235Z,6.50
2024-03-08T16:22:26.934Z,6.34
2024-03-08T16:27:30.867Z,6.16
2024-03-08T16:32:34.689Z,5.94
2024-03-08T16:37:53.926Z,5.69
2024-03-08T16:42:57.874Z,5.42
2024-03-08T16:48:05.081Z,5.16
2024-03-08T16:53:12.482Z,4.90
2024-03-08T16:58:16.727Z,4.65
2024-03-08T17:03:20.807Z,4.42
2024-03-08T17:08:24.931Z,4.19
2024-03-08T17:13:29.522Z,3.99
2024-03-08T17:18:33.320Z,3.82
2024-03-08T17:23:38.518Z,3.61
2024-03-08T17:28:44.859Z,3.38
2024-03-08T17:33:49.124Z,3.07
2024-03-08T17:38:54.951Z,2.87
2024-03-08T17:43:59.112Z,2.72
2024-03-08T17:49:04.573Z,2.41
2024-03-08T17:54:12.574Z,2.09
2024-03-08T17:59:16.700Z,1.87
2024-03-08T18:04:23.965Z,1.71
2024-03-08T18:09:28.129Z,1.52
2024-03-08T18:14:32.472Z,1.30
2024-03-08T18:19:38.070Z,1.13
2024-03-08T18:24:44.107Z,1.09
2024-03-08T18:29:47.994Z,1.03
2024-03-08T18:34:52.714Z,0.89
2024-03-08T18:39:57.671Z,0.85
2024-03-08T18:45:01.592Z,0.86
2024-03-08T18:50:07.639Z,0.75
2024-03-08T18:55:17.096Z,0.63
2024-03-08T19:00:23.211Z,0.47
2024-03-08T19:05:29.974Z,0.35
2024-03-08T19:10:35.479Z,0.27
2024-03-08T19:15:39.857Z,0.17
2024-03-08T19:20:44.364Z,0.06
2024-03-08T19:25:51.688Z,-0.02
2024-03-08T19:30:57.435Z,-0.08
2024-03-08T19:36:01.932Z,-0.11
2024-03-08T19:41:08.316Z,-0.15
2024-03-08T19:46:13.346Z,-0.27
2024-03-08T19:51:18.762Z,-0.34
2024-03-08T19:56:24.553Z,-0.43
2024-03-08T20:01:28.426Z,-0.51
2024-03-08T20:06:33.725Z,-0.58
2024-03-08T20:11:37.823Z,-0.62
2024-03-08T20:16:41.462Z,-0.66
2024-03-08T20:21:45.998Z,-0.68
2024-03-08T20:26:50.512Z,-0.71
2024-03-08T20:31:55.135Z,-0.71
2024-03-08T20:37:02.660Z,-0.71
2024-03-08T20:42:06.984Z,-0.75
2024-03-08T20:47:12.878Z,-0.87
2024-03-08T20:52:17.767Z,-1.01
2024-03-08T20:57:22.343Z,-1.14
2024-03-08T21:02:26.800Z,-1.19
2024-03-08T21:07:33.656Z,-1.25
2024-03-08T21:12:42.240Z,-1.34
2024-03-08T21:17:47.828Z,-1.42
2024-03-08T21:22:52.754Z,-1.44
2024-03-08T21:28:01.934Z,-1.50
2024-03-08T21:33:12.650Z,-1.58
2024-03-08T21:38:18.096Z,-1.67
2024-03-08T21:43:23.097Z,-1.65
2024-03-08T21:48:28.062Z,-1.60
2024-03-08T21:53:35.513Z,-1.59
2024-03-08T21:58:42.415Z,-1.65
2024-03-08T22:03:46.992Z,-1.76
2024-03-08T22:08:52.168Z,-1.87
2024-03-08T22:13:57.439Z,-1.94
2024-03-08T22:19:02.521Z,-2.01
2024-03-08T22:24:06.734Z,-2.08
2024-03-08T22:29:11.982Z,-2.11
2024-03-08T22:34:17.369Z,-2.07
2024-03-08T22:39:25.222Z,-2.01
2024-03-08T22:44:29.593Z,-1.98
2024-03-08T22:49:34.792Z,-1.94
2024-03-08T22:54:38.848Z,-1.91
2024-03-08T22:59:43.504Z,-1.90
2024-03-08T23:04:48.146Z,-1.90
2024-03-08T23:09:51.967Z,-1.90
2024-03-08T23:14:56.569Z,-1.95
2024-03-08T23:20:00.906Z,-2.01
2024-03-08T23:25:11.227Z,-2.06
2024-03-08T23:30:15.081Z,-2.08
2024-03-08T23:35:22.789Z,-2.09
2024-03-08T23:40:26.394Z,-2.14
2024-03-08T23:45:31.905Z,-2.23
2024-03-08T23:50:38.773Z,-2.36
2024-03-08T23:55:44.774Z,-2.50
